createdAt,value
2023-01-21T00:00:07.173Z,100176.59
2023-01-21T00:02:34.729Z,100171.04
2023-01-21T00:05:01.610Z,100169.48
2023-01-21T00:07:28.384Z,100170.05
2023-01-21T00:09:55.134Z,100162.05
2023-01-21T00:12:22.261Z,100162.81
2023-01-21T00:14:49.104Z,100166.57
2023-01-21T00:17:15.903Z,100167.92
2023-01-21T00:19:42.641Z,100175.05
2023-01-21T00:22:09.537Z,100174.13
2023-01-21T00:24:36.377Z,100171.55
2023-01-21T00:27:03.141Z,100175.94
2023-01-21T00:29:29.960Z,100173.90
2023-01-21T00:31:56.728Z,100175.82
2023-01-21T00:34:23.544Z,100169.55
2023-01-21T00:36:50.383Z,100167.35
2023-01-21T00:39:17.141Z,100166.53
2023-01-21T00:41:43.981Z,100166.27
2023-01-21T00:44:10.832Z,100166.91
2023-01-21T00:46:37.681Z,100172.91
2023-01-21T00:49:04.623Z,100167.65
2023-01-21T00:51:31.458Z,100171.95
2023-01-21T00:53:58.282Z,100175.42
2023-01-21T00:56:25.054Z,100175.66
2023-01-21T00:58:51.970Z,100181.63
2023-01-21T01:01:20.384Z,100179.80
2023-01-21T01:03:47.924Z,100182.70
2023-01-21T01:06:22.529Z,100184.09
2023-01-21T01:08:50.426Z,100189.14
2023-01-21T01:11:17.440Z,100184.13
2023-01-21T01:13:44.526Z,100189.16
2023-01-21T01:16:12.951Z,100193.86
2023-01-21T01:18:40.358Z,100191.40
2023-01-21T01:21:10.623Z,100187.78
2023-01-21T01:23:37.486Z,100181.80
2023-01-21T01:26:05.795Z,100178.11
2023-01-21T01:28:32.800Z,100168.34
2023-01-21T01:30:59.961Z,100167.24
2023-01-21T01:33:27.334Z,100157.17
2023-01-21T01:35:54.175Z,100157.67
2023-01-21T01:38:21.859Z,100154.23
2023-01-21T01:40:49.741Z,100150.13
2023-01-21T01:43:21.151Z,100141.18
2023-01-21T01:45:48.133Z,100144.98
2023-01-21T01:48:18.628Z,100148.13
2023-01-21T01:50:45.518Z,100151.02
2023-01-21T01:53:12.263Z,100149.16
2023-01-21T01:55:39.087Z,100146.44
2023-01-21T01:58:08.151Z,100144.70
2023-01-21T02:00:35.193Z,100149.03
2023-01-21T02:03:20.775Z,100150.27
2023-01-21T02:05:47.588Z,100151.48
2023-01-21T02:08:14.379Z,100150.17
2023-01-21T02:10:41.150Z,100154.08
2023-01-21T02:13:07.921Z,100151.44
2023-01-21T02:15:45.959Z,100151.35
2023-01-21T02:18:16.673Z,100145.17
2023-01-21T02:21:03.466Z,100147.60
2023-01-21T02:24:08.863Z,100146.46
2023-01-21T02:26:44.566Z,100144.92
2023-01-21T02:29:31.824Z,100146.08
2023-01-21T02:32:09.619Z,100141.51
2023-01-21T02:34:45.625Z,100137.69
2023-01-21T02:37:15.130Z,100137.85
2023-01-21T02:39:49.174Z,100142.61
2023-01-21T02:42:42.872Z,100146.04
2023-01-21T02:45:15.672Z,100157.45
2023-01-21T02:47:55.901Z,100163.17
2023-01-21T02:50:27.284Z,100163.14
2023-01-21T02:52:55.753Z,100165.91
2023-01-21T02:55:22.611Z,100177.23
2023-01-21T02:57:50.940Z,100188.04
2023-01-21T03:00:31.878Z,100193.05
2023-01-21T03:03:23.010Z,100194.00
2023-01-21T03:05:59.139Z,100194.83
2023-01-21T03:08:42.195Z,100197.34
2023-01-21T03:11:17.041Z,100202.23
2023-01-21T03:14:17.309Z,100194.76
2023-01-21T03:16:59.930Z,100190.46
2023-01-21T03:19:42.753Z,100186.42
2023-01-21T03:22:16.114Z,100188.37
2023-01-21T03:24:44.012Z,100182.73
2023-01-21T03:27:12.136Z,100190.40
2023-01-21T03:29:39.183Z,100184.23
2023-01-21T03:32:06.423Z,100178.15
2023-01-21T03:34:34.626Z,100185.27
2023-01-21T03:37:05.031Z,100173.04
2023-01-21T03:40:01.139Z,100161.38
2023-01-21T03:42:27.999Z,100173.79
2023-01-21T03:44:55.004Z,100191.73
2023-01-21T03:47:29.589Z,100178.90
2023-01-21T03:50:00.950Z,100165.02
2023-01-21T03:52:27.866Z,100162.23
2023-01-21T03:54:54.673Z,100154.75
2023-01-21T03:57:21.440Z,100164.39
2023-01-21T03:59:48.600Z,100175.92
2023-01-21T04:02:20.368Z,100187.86
2023-01-21T04:04:47.546Z,100164.56
2023-01-21T04:07:15.288Z,100147.20
2023-01-21T04:09:42.241Z,100173.11
2023-01-21T04:12:09.231Z,100162.06
2023-01-21T04:14:36.037Z,100171.73
2023-01-21T04:17:02.850Z,100160.82
2023-01-21T04:19:29.669Z,100179.64
2023-01-21T04:21:56.496Z,100175.19
2023-01-21T04:24:23.277Z,100168.37
2023-01-21T04:26:50.021Z,100172.42
2023-01-21T04:29:17.513Z,100182.27
2023-01-21T04:31:44.572Z,100184.55
2023-01-21T04:34:11.374Z,100193.77
2023-01-21T04:36:38.134Z,100192.23
2023-01-21T04:39:05.154Z,100200.98
2023-01-21T04:41:31.991Z,100195.23
2023-01-21T04:43:58.835Z,100188.88
2023-01-21T04:46:25.617Z,100191.83
2023-01-21T04:48:55.355Z,100187.86
2023-01-21T04:51:22.174Z,100202.01
2023-01-21T04:53:49.024Z,100214.27
2023-01-21T04:56:15.795Z,100215.80
2023-01-21T04:58:42.510Z,100212.02
2023-01-21T05:01:09.247Z,100206.55
2023-01-21T05:03:36.081Z,100207.20
2023-01-21T05:06:02.939Z,100209.73
2023-01-21T05:08:30.538Z,100213.52
2023-01-21T05:10:57.383Z,100221.20
2023-01-21T05:13:24.353Z,100219.84
2023-01-21T05:15:51.395Z,100206.35
2023-01-21T05:18:18.218Z,100221.92
2023-01-21T05:20:44.937Z,100216.23
2023-01-21T05:23:11.804Z,100219.29
2023-01-21T05:25:38.571Z,100216.88
2023-01-21T05:28:05.390Z,100208.93
2023-01-21T05:30:32.126Z,100205.63
2023-01-21T05:32:58.973Z,100207.05
2023-01-21T05:35:25.818Z,100212.86
2023-01-21T05:37:52.577Z,100208.84
2023-01-21T05:40:19.708Z,100217.35
2023-01-21T05:42:47.169Z,100210.02
2023-01-21T05:45:14.208Z,100211.21
2023-01-21T05:47:41.149Z,100207.64
2023-01-21T05:50:09.272Z,100202.43
2023-01-21T05:52:36.081Z,100204.31
2023-01-21T05:55:03.257Z,100201.11
2023-01-21T05:57:30.743Z,100205.32
2023-01-21T05:59:57.892Z,100212.32
2023-01-21T06:02:25.004Z,100213.20
2023-01-21T06:04:51.911Z,100220.70
2023-01-21T06:07:18.688Z,100219.51
2023-01-21T06:09:45.450Z,100210.77
2023-01-21T06:12:12.239Z,100229.60
2023-01-21T06:14:39.121Z,100218.91
2023-01-21T06:17:05.962Z,100210.17
2023-01-21T06:19:32.775Z,100210.49
2023-01-21T06:21:59.612Z,100206.18
2023-01-21T06:24:26.421Z,100209.08
2023-01-21T06:26:53.619Z,100214.73
2023-01-21T06:29:20.370Z,100228.34
2023-01-21T06:31:47.301Z,100228.67
2023-01-21T06:34:14.251Z,100218.97
2023-01-21T06:36:42.798Z,100224.00
2023-01-21T06:39:10.946Z,100227.70
2023-01-21T06:41:38.029Z,100230.00
2023-01-21T06:44:05.063Z,100224.50
2023-01-21T06:46:32.065Z,100214.59
2023-01-21T06:48:59.078Z,100215.81
2023-01-21T06:51:25.889Z,100219.27
2023-01-21T06:53:52.796Z,100227.92
2023-01-21T06:56:19.814Z,100228.81
2023-01-21T06:58:46.642Z,100228.10
2023-01-21T07:01:13.444Z,100232.00
2023-01-21T07:03:40.276Z,100229.48
2023-01-21T07:06:07.141Z,100238.14
2023-01-21T07:08:34.268Z,100236.55
2023-01-21T07:24:21.831Z,100244.27
2023-01-21T07:26:48.623Z,100256.91
2023-01-21T07:29:15.419Z,100263.73
2023-01-21T07:31:42.223Z,100274.67
2023-01-21T07:34:10.071Z,100278.91
2023-01-21T07:36:36.856Z,100282.96
2023-01-21T07:39:03.615Z,100289.31
2023-01-21T07:41:30.395Z,100287.08
2023-01-21T07:43:57.165Z,100289.12
2023-01-21T07:46:24.165Z,100286.35
2023-01-21T07:48:51.945Z,100291.38
2023-01-21T07:51:19.552Z,100294.20
2023-01-21T07:53:46.510Z,100301.67
2023-01-21T07:56:13.366Z,100297.91
2023-01-21T07:58:40.197Z,100300.99
2023-01-21T08:01:10.354Z,100311.38
2023-01-21T08:03:37.686Z,100313.13
2023-01-21T08:06:07.466Z,100319.31
2023-01-21T08:08:34.412Z,100321.99
2023-01-21T08:11:01.197Z,100319.81
2023-01-21T08:13:28.114Z,100328.39
2023-01-21T08:15:56.186Z,100343.17
2023-01-21T08:18:23.379Z,100336.16
2023-01-21T08:20:58.073Z,100340.63
2023-01-21T08:23:26.050Z,100337.06
2023-01-21T08:25:53.083Z,100341.14
2023-01-21T08:28:19.942Z,100340.44
2023-01-21T08:30:46.761Z,100341.00
2023-01-21T08:33:13.925Z,100350.21
2023-01-21T08:35:40.681Z,100350.14
2023-01-21T08:38:07.523Z,100345.36
2023-01-21T08:40:34.565Z,100355.02
2023-01-21T08:43:02.662Z,100351.77
2023-01-21T08:45:29.688Z,100352.88
2023-01-21T08:47:57.106Z,100361.39
2023-01-21T08:50:24.082Z,100367.84
2023-01-21T08:52:52.274Z,100377.25
2023-01-21T08:55:19.404Z,100376.75
2023-01-21T08:57:46.232Z,100374.72
2023-01-21T09:00:14.432Z,100372.70
2023-01-21T09:02:41.228Z,100377.38
2023-01-21T09:05:08.499Z,100379.39
2023-01-21T09:07:35.319Z,100375.45
2023-01-21T09:10:05.987Z,100378.70
2023-01-21T09:12:32.963Z,100374.79
2023-01-21T09:14:59.999Z,100372.52
2023-01-21T09:17:27.052Z,100365.54
2023-01-21T09:19:55.471Z,100366.46
2023-01-21T09:22:22.443Z,100373.89
2023-01-21T09:24:49.227Z,100371.16
2023-01-21T09:27:16.142Z,100380.52
2023-01-21T09:29:43.073Z,100378.92
2023-01-21T09:32:10.026Z,100378.89
2023-01-21T09:34:36.819Z,100376.40
2023-01-21T09:37:05.172Z,100379.53
2023-01-21T09:39:31.922Z,100373.75
2023-01-21T09:41:58.752Z,100368.58
2023-01-21T09:44:35.181Z,100373.52
2023-01-21T09:47:26.411Z,100371.46
2023-01-21T09:49:59.153Z,100378.64
2023-01-21T14:11:35.375Z,100580.55
2023-01-21T14:14:17.592Z,100584.70
2023-01-21T14:16:50.707Z,100591.77
2023-01-21T14:19:42.034Z,100594.72
2023-01-21T14:22:36.933Z,100603.15
2023-01-21T14:25:46.593Z,100608.61
2023-01-21T14:28:16.662Z,100618.95
2023-01-21T14:30:46.456Z,100621.95
2023-01-21T14:33:17.358Z,100629.13
2023-01-21T14:36:10.052Z,100633.02
2023-01-21T14:38:56.166Z,100632.09
2023-01-21T14:41:22.946Z,100641.47
2023-01-21T14:43:51.724Z,100647.17
2023-01-21T14:46:34.022Z,100650.16
2023-01-21T14:49:08.377Z,100654.63
2023-01-21T14:51:42.882Z,100665.16
2023-01-21T14:54:15.988Z,100664.78
2023-01-21T14:56:56.873Z,100662.47
2023-01-21T14:59:37.967Z,100658.03
2023-01-21T15:02:28.641Z,100655.40
2023-01-21T15:05:00.219Z,100656.77
2023-01-21T15:07:34.335Z,100657.33
2023-01-21T15:10:03.068Z,100661.54
2023-01-21T15:12:31.401Z,100661.95
2023-01-21T15:15:03.258Z,100672.05
2023-01-21T15:18:09.323Z,100667.66
2023-01-21T15:20:42.268Z,100673.95
2023-01-21T15:23:27.227Z,100674.90
2023-01-21T15:26:11.255Z,100676.59
2023-01-21T15:28:40.001Z,100676.69
2023-01-21T15:31:09.114Z,100680.65
2023-01-21T15:33:38.539Z,100684.54
2023-01-21T15:36:05.635Z,100691.45
2023-01-21T15:38:32.384Z,100696.52
2023-01-21T15:41:06.812Z,100704.53
2023-01-21T15:44:06.021Z,100704.65
2023-01-21T15:46:46.585Z,100705.23
2023-01-21T15:49:31.854Z,100708.39
2023-01-21T15:52:21.428Z,100712.98
2023-01-21T15:55:06.085Z,100714.16
2023-01-21T15:57:32.829Z,100714.75
2023-01-21T16:00:27.734Z,100718.13
2023-01-21T16:03:03.018Z,100722.39
2023-01-21T16:06:07.468Z,100725.52
2023-01-21T16:08:55.805Z,100724.80
2023-01-21T16:11:30.098Z,100730.67
2023-01-21T16:14:13.840Z,100733.61
2023-01-21T16:17:03.393Z,100740.69
2023-01-21T16:19:32.912Z,100744.70
2023-01-21T16:22:01.318Z,100747.08
2023-01-21T16:24:29.183Z,100745.45
2023-01-21T16:26:56.171Z,100747.92
2023-01-21T16:29:22.975Z,100747.07
2023-01-21T16:31:50.803Z,100751.48
2023-01-21T16:34:39.562Z,100757.46
2023-01-21T16:37:06.797Z,100765.11
2023-01-21T16:39:33.635Z,100763.56
2023-01-21T16:42:02.247Z,100770.60
2023-01-21T16:44:29.259Z,100775.85
2023-01-21T16:46:56.232Z,100779.10
2023-01-21T16:49:23.050Z,100781.65
2023-01-21T16:51:56.478Z,100784.40
2023-01-21T16:54:24.843Z,100786.35
2023-01-21T16:56:55.162Z,100783.08
2023-01-21T16:59:25.453Z,100787.97
2023-01-21T17:01:52.289Z,100790.37
2023-01-21T17:04:19.194Z,100795.33
2023-01-21T17:06:46.067Z,100794.91
2023-01-21T17:09:25.804Z,100799.56
2023-01-21T17:11:52.695Z,100796.83
2023-01-21T17:14:25.307Z,100797.07
2023-01-21T17:16:52.154Z,100802.45
2023-01-21T17:19:24.209Z,100803.15
2023-01-21T17:21:55.462Z,100807.64
2023-01-21T17:24:33.277Z,100813.70
2023-01-21T17:27:10.389Z,100817.33
2023-01-21T17:29:37.310Z,100815.64
2023-01-21T17:32:05.749Z,100817.01
2023-01-21T17:34:34.157Z,100819.94
2023-01-21T17:37:01.008Z,100824.27
2023-01-21T17:39:46.455Z,100824.98
2023-01-21T17:42:23.930Z,100830.09
2023-01-21T17:44:53.362Z,100835.25
2023-01-21T17:47:32.353Z,100840.80
2023-01-21T17:50:03.091Z,100847.98
2023-01-21T17:52:30.040Z,100850.77
2023-01-21T17:55:25.988Z,100854.21
2023-01-21T21:41:52.574Z,101082.38
2023-01-21T21:44:19.324Z,101084.39
2023-01-21T21:47:04.547Z,101089.25
2023-01-21T21:49:32.707Z,101095.68
2023-01-21T21:52:00.506Z,101094.99
2023-01-21T21:54:27.560Z,101093.59
2023-01-21T21:56:54.226Z,101089.03
2023-01-21T21:59:20.925Z,101093.23
2023-01-21T22:01:50.995Z,101101.57
2023-01-21T22:04:17.954Z,101103.62
2023-01-21T22:06:44.498Z,101105.50
2023-01-21T22:09:11.349Z,101110.23
2023-01-21T22:11:37.996Z,101105.48
2023-01-21T22:14:04.938Z,101105.40
2023-01-21T22:16:31.917Z,101104.15
2023-01-21T22:18:59.531Z,101104.85
2023-01-21T22:21:28.218Z,101115.61
2023-01-21T22:23:56.056Z,101113.77
2023-01-21T22:26:23.823Z,101121.35
2023-01-21T22:28:53.358Z,101123.61
2023-01-21T22:31:24.862Z,101129.33
2023-01-21T22:33:51.719Z,101129.52
2023-01-21T22:36:19.896Z,101130.42
2023-01-21T22:38:46.595Z,101131.36
2023-01-21T22:41:14.166Z,101132.06
2023-01-21T22:43:43.997Z,101131.77
2023-01-21T22:46:12.301Z,101129.42
2023-01-21T22:48:39.043Z,101128.69
2023-01-21T22:51:05.863Z,101124.03
2023-01-21T22:53:32.650Z,101124.67
2023-01-21T22:56:00.967Z,101128.70
2023-01-21T22:58:28.515Z,101130.79
2023-01-21T23:00:55.451Z,101129.66
2023-01-21T23:03:22.316Z,101137.54
2023-01-21T23:05:49.248Z,101137.60
2023-01-21T23:08:16.246Z,101146.17
2023-01-21T23:10:43.425Z,101149.20
2023-01-21T23:13:11.153Z,101147.93
2023-01-21T23:15:45.627Z,101151.60
2023-01-21T23:18:13.211Z,101153.41
2023-01-21T23:20:41.395Z,101157.21
2023-01-21T23:23:09.393Z,101164.73
2023-01-21T23:25:45.698Z,101165.95
2023-01-21T23:28:13.257Z,101172.29
2023-01-21T23:30:40.257Z,101171.70
2023-01-21T23:33:06.926Z,101177.70
2023-01-21T23:35:34.808Z,101175.77
2023-01-21T23:38:01.918Z,101184.38
2023-01-21T23:40:28.991Z,101184.59
2023-01-21T23:42:55.578Z,101188.44
2023-01-21T23:45:22.504Z,101192.50
2023-01-21T23:47:49.337Z,101200.45
2023-01-21T23:50:16.308Z,101200.63
2023-01-21T23:52:43.243Z,101200.46
2023-01-21T23:55:09.934Z,101203.87
2023-01-21T23:57:36.929Z,101201.97
